Keystone Islands, Florida
Current Conditions -  °F | °C
As of 6:53 AM on Thursday 18 Dec 2014 (Local Time) from KOPF Reporting Station
Clear Clear  
Wind Chill: 57°   Ceiling: Unl
Heat Index: 57°   Visibility: 10mi
Dew Point: 56°   Wind: 3mph
Humidity: 96%   Direction: 280°W
Pressure: 30.14"   Gusts: NA
Location:  25.8824°N, 80.1808°W
Report Text: KOPF 181153Z 28003KT 10SM CLR 14/13 A3014 RMK AO2 SLP207 T01390133 10161 20128 53001
Loading
Personal Weather Stations






























Interactive Weather Map New forecast layout! Learn more

10-Day Weather Forecast

Advertisements
Track Severe Weather on mobile